Time;durP1;ratioP1;P1;durP2;ratioP2;P2;SDS_P1;SDS_P2;PMS_P1;PMS_P2;Temp;Humidity;BMP_temperature;BMP_pressure;BME280_temperature;BME280_humidity;BME280_pressure;Samples;Min_cycle;Max_cycle;Signal;HPM_P1;HPM_P2
2022/03/16 00:02:01;;;;;;;14.90;8.75;;;3.90;99.90;;;;;;4998187;28;20036;-79
2022/03/16 00:04:27;;;;;;;14.10;8.93;;;3.80;99.90;;;;;;4971304;28;20042;-79
2022/03/16 00:06:52;;;;;;;16.63;9.20;;;4.00;99.90;;;;;;4973002;28;20508;-79
2022/03/16 00:09:18;;;;;;;12.52;8.05;;;4.10;99.90;;;;;;4994891;28;20041;-79
2022/03/16 00:11:43;;;;;;;13.57;7.15;;;4.10;99.90;;;;;;4986215;28;20045;-79
2022/03/16 00:14:09;;;;;;;11.52;6.85;;;4.30;99.90;;;;;;4983113;28;20064;-79
2022/03/16 00:16:34;;;;;;;15.32;9.38;;;4.20;99.90;;;;;;4985124;28;20445;-80
2022/03/16 00:19:00;;;;;;;17.10;10.20;;;3.80;99.90;;;;;;4971026;28;20029;-79
2022/03/16 00:21:26;;;;;;;18.63;10.68;;;3.50;99.90;;;;;;4984956;28;20049;-79
2022/03/16 00:23:51;;;;;;;16.92;9.70;;;3.40;99.90;;;;;;4994071;28;20084;-79
2022/03/16 00:26:17;;;;;;;17.63;11.80;;;3.30;99.90;;;;;;5013478;28;20052;-79
2022/03/16 00:28:42;;;;;;;14.93;9.18;;;3.40;99.90;;;;;;4984496;28;20034;-79
2022/03/16 00:31:08;;;;;;;13.63;9.55;;;3.50;99.90;;;;;;4970770;28;20038;-79
2022/03/16 00:33:34;;;;;;;14.43;8.45;;;3.50;99.90;;;;;;4974496;28;20643;-79
2022/03/16 00:35:59;;;;;;;10.30;6.70;;;3.40;99.90;;;;;;4971214;28;20489;-79
2022/03/16 00:38:25;;;;;;;11.95;7.13;;;3.70;99.90;;;;;;4976882;28;20069;-79
2022/03/16 00:40:51;;;;;;;15.20;8.23;;;3.80;99.90;;;;;;4993731;28;20517;-79
2022/03/16 00:43:16;;;;;;;11.40;7.80;;;3.80;99.90;;;;;;4987504;28;20508;-80
2022/03/16 00:45:42;;;;;;;16.27;8.18;;;3.80;99.90;;;;;;4988823;28;20125;-79
2022/03/16 00:48:08;;;;;;;16.77;10.00;;;3.60;99.90;;;;;;4975873;28;20490;-79
2022/03/16 00:50:34;;;;;;;23.08;11.27;;;3.50;99.90;;;;;;4984734;28;20026;-79
2022/03/16 00:53:00;;;;;;;15.88;10.57;;;3.30;99.90;;;;;;4970200;28;20034;-80
2022/03/16 00:55:25;;;;;;;16.67;9.65;;;3.20;99.90;;;;;;4970679;28;20087;-79
2022/03/16 00:57:51;;;;;;;18.45;10.25;;;3.00;99.90;;;;;;4989188;28;20469;-79
2022/03/16 01:00:16;;;;;;;16.67;9.93;;;2.90;99.90;;;;;;4990681;28;20437;-79
2022/03/16 01:02:42;;;;;;;13.90;9.88;;;3.00;99.90;;;;;;5006077;28;20083;-79
2022/03/16 01:05:08;;;;;;;15.88;10.73;;;3.10;99.90;;;;;;4967992;28;20478;-79
2022/03/16 01:07:33;;;;;;;21.63;11.48;;;2.80;99.90;;;;;;4987622;28;20032;-79
2022/03/16 01:09:59;;;;;;;16.58;10.07;;;2.70;99.90;;;;;;4981422;28;20056;-79
2022/03/16 01:12:24;;;;;;;12.07;7.80;;;2.70;99.90;;;;;;4979259;28;20062;-79
2022/03/16 01:14:50;;;;;;;14.27;8.73;;;2.90;99.90;;;;;;4977429;28;20025;-80
2022/03/16 01:17:15;;;;;;;13.65;9.27;;;3.30;99.90;;;;;;4988415;28;20026;-80
2022/03/16 01:19:41;;;;;;;14.00;8.15;;;3.20;99.90;;;;;;4973101;28;20038;-80
2022/03/16 01:22:06;;;;;;;20.45;11.00;;;3.10;99.90;;;;;;4985277;28;20102;-79
2022/03/16 01:24:32;;;;;;;20.10;11.05;;;3.00;99.90;;;;;;4967101;28;20037;-80
2022/03/16 01:26:58;;;;;;;13.98;9.02;;;2.70;99.90;;;;;;5002144;28;20034;-80
2022/03/16 01:29:26;;;;;;;15.23;8.48;;;2.60;99.90;;;;;;4988791;28;20603;-80
2022/03/16 01:31:52;;;;;;;12.35;8.48;;;2.80;99.90;;;;;;4997248;28;20246;-80
2022/03/16 01:34:18;;;;;;;15.90;10.98;;;3.10;99.90;;;;;;5003105;28;20555;-79
2022/03/16 01:36:44;;;;;;;18.92;11.30;;;2.90;99.90;;;;;;4971817;28;20033;-80
2022/03/16 01:39:09;;;;;;;16.55;10.40;;;2.60;99.90;;;;;;4973433;28;20030;-80
2022/03/16 01:41:35;;;;;;;15.77;8.10;;;2.60;99.90;;;;;;4983934;28;20397;-80
2022/03/16 01:44:01;;;;;;;12.70;7.90;;;2.80;99.90;;;;;;4972349;28;20092;-79
2022/03/16 01:46:27;;;;;;;15.07;10.13;;;3.00;99.90;;;;;;4984003;28;20493;-80
2022/03/16 01:48:53;;;;;;;15.82;10.57;;;2.80;99.90;;;;;;4982418;28;20025;-80
2022/03/16 01:51:18;;;;;;;13.50;8.70;;;2.60;99.90;;;;;;4986380;28;20041;-79
2022/03/16 01:53:44;;;;;;;11.13;6.82;;;2.40;99.90;;;;;;5001269;28;20419;-80
2022/03/16 01:56:10;;;;;;;17.15;10.38;;;2.80;99.90;;;;;;4986180;28;20045;-80
2022/03/16 01:58:35;;;;;;;17.52;9.88;;;2.80;99.90;;;;;;4968916;28;20038;-80
2022/03/16 02:01:01;;;;;;;16.58;9.93;;;2.50;99.90;;;;;;4996344;28;20499;-79
2022/03/16 02:03:26;;;;;;;19.10;10.77;;;2.50;99.90;;;;;;4987106;28;20033;-79
2022/03/16 02:05:52;;;;;;;18.27;11.40;;;2.20;99.90;;;;;;4991849;28;20060;-79
2022/03/16 02:08:17;;;;;;;19.50;10.68;;;2.00;99.90;;;;;;4970179;28;20160;-80
2022/03/16 02:10:43;;;;;;;17.58;10.93;;;2.00;99.90;;;;;;4970166;28;20494;-80
2022/03/16 02:13:10;;;;;;;19.52;11.05;;;2.20;99.90;;;;;;4981889;28;20024;-79
2022/03/16 02:15:35;;;;;;;23.85;11.75;;;2.10;99.90;;;;;;4987641;28;20398;-79
2022/03/16 02:18:01;;;;;;;20.95;11.73;;;2.00;99.90;;;;;;4975925;28;20025;-79
2022/03/16 02:20:29;;;;;;;13.93;8.65;;;1.90;99.90;;;;;;4967004;28;20440;-79
2022/03/16 02:23:02;;;;;;;13.18;8.75;;;2.10;99.90;;;;;;4983713;28;20062;-79
2022/03/16 02:25:29;;;;;;;16.90;10.48;;;2.40;99.90;;;;;;4995300;28;20390;-79
2022/03/16 02:27:55;;;;;;;15.75;10.82;;;1.80;99.90;;;;;;4967959;28;20026;-79
2022/03/16 02:30:25;;;;;;;16.23;9.38;;;1.70;99.90;;;;;;4968198;28;20036;-79
2022/03/16 02:32:50;;;;;;;24.27;11.50;;;1.80;99.90;;;;;;4986052;28;20041;-80
2022/03/16 02:35:16;;;;;;;17.13;10.60;;;1.90;99.90;;;;;;4985951;28;20064;-79
2022/03/16 02:37:41;;;;;;;17.63;11.85;;;1.60;99.90;;;;;;4966889;28;20116;-79
2022/03/16 02:40:09;;;;;;;17.52;11.63;;;1.50;99.90;;;;;;4979829;28;20037;-79
2022/03/16 02:42:35;;;;;;;20.55;11.82;;;1.60;99.90;;;;;;4978324;28;20065;-79
2022/03/16 02:45:01;;;;;;;17.05;12.27;;;1.50;99.90;;;;;;4968982;28;20024;-79
2022/03/16 02:47:27;;;;;;;18.23;10.95;;;1.40;99.90;;;;;;4999045;28;20048;-79
2022/03/16 02:49:54;;;;;;;21.35;12.38;;;1.50;99.90;;;;;;4982872;28;20041;-79
2022/03/16 02:52:19;;;;;;;21.40;12.52;;;1.70;99.90;;;;;;4974518;28;20034;-79
2022/03/16 02:54:45;;;;;;;18.77;11.63;;;1.50;99.90;;;;;;4971380;28;20369;-79
2022/03/16 02:57:13;;;;;;;19.80;12.65;;;1.50;99.90;;;;;;4980060;28;20481;-79
2022/03/16 02:59:39;;;;;;;21.13;12.93;;;1.50;99.90;;;;;;4993615;28;20038;-79
2022/03/16 03:02:04;;;;;;;16.77;12.20;;;1.60;99.90;;;;;;4979233;28;20558;-79
2022/03/16 03:04:30;;;;;;;16.25;10.30;;;1.70;99.90;;;;;;4968743;28;20091;-79
2022/03/16 03:06:57;;;;;;;18.15;11.63;;;1.80;99.90;;;;;;4982032;28;20104;-79
2022/03/16 03:09:23;;;;;;;22.13;12.18;;;1.80;99.90;;;;;;4974539;28;20343;-79
2022/03/16 03:11:48;;;;;;;15.90;10.80;;;1.70;99.90;;;;;;4969562;28;20037;-80
2022/03/16 03:14:14;;;;;;;18.13;10.95;;;1.70;99.90;;;;;;5004124;28;20442;-79
2022/03/16 03:16:39;;;;;;;23.98;11.35;;;1.70;99.90;;;;;;4982007;28;20124;-79
2022/03/16 03:19:05;;;;;;;17.58;11.48;;;1.70;99.90;;;;;;4984887;28;20469;-79
2022/03/16 03:21:30;;;;;;;17.45;10.45;;;1.60;99.90;;;;;;4994973;28;20490;-79
2022/03/16 03:23:56;;;;;;;17.35;10.10;;;1.50;99.90;;;;;;4982511;28;20033;-79
2022/03/16 03:26:21;;;;;;;20.25;11.07;;;1.50;99.90;;;;;;4986953;28;20030;-79
2022/03/16 03:28:47;;;;;;;17.75;11.48;;;1.40;99.90;;;;;;4990443;28;20058;-79
2022/03/16 03:31:12;;;;;;;18.02;10.32;;;1.40;99.90;;;;;;4980976;28;20557;-79
2022/03/16 03:33:38;;;;;;;20.88;10.77;;;1.50;99.90;;;;;;4978371;28;20042;-79
2022/03/16 03:36:03;;;;;;;19.63;12.07;;;1.40;99.90;;;;;;4981744;28;20044;-79
2022/03/16 03:38:29;;;;;;;18.98;10.85;;;1.40;99.90;;;;;;4988103;28;20048;-79
2022/03/16 03:40:54;;;;;;;16.55;10.32;;;1.40;99.90;;;;;;4979170;28;20041;-79
2022/03/16 03:43:20;;;;;;;18.83;10.80;;;1.40;99.90;;;;;;4962038;28;20080;-78
2022/03/16 03:45:46;;;;;;;17.67;12.18;;;1.50;99.90;;;;;;4980838;28;20532;-79
2022/03/16 03:48:11;;;;;;;17.20;10.93;;;1.40;99.90;;;;;;4982690;28;20105;-79
2022/03/16 03:50:37;;;;;;;20.58;11.63;;;1.30;99.90;;;;;;4976069;28;20116;-79
2022/03/16 03:53:02;;;;;;;18.38;11.00;;;1.00;99.90;;;;;;4987267;28;20029;-78
2022/03/16 03:55:28;;;;;;;22.65;11.15;;;1.10;99.90;;;;;;4988927;28;20038;-79
2022/03/16 03:57:53;;;;;;;18.73;11.77;;;1.20;99.90;;;;;;4971237;28;20105;-78
2022/03/16 04:00:19;;;;;;;17.50;10.60;;;1.30;99.90;;;;;;4981196;28;20030;-78
2022/03/16 04:02:50;;;;;;;18.88;10.35;;;1.20;99.90;;;;;;4971222;28;20046;-79
2022/03/16 04:05:17;;;;;;;17.80;10.93;;;1.20;99.90;;;;;;4994772;28;20030;-79
2022/03/16 04:07:43;;;;;;;21.77;11.45;;;1.20;99.90;;;;;;4986081;28;20044;-79
2022/03/16 04:10:08;;;;;;;17.35;11.18;;;1.20;99.90;;;;;;4970838;28;20474;-79
2022/03/16 04:12:34;;;;;;;18.90;11.13;;;1.20;99.90;;;;;;4968896;28;20064;-78
2022/03/16 04:15:00;;;;;;;23.63;11.55;;;1.10;99.90;;;;;;4971845;28;20053;-79
2022/03/16 04:17:25;;;;;;;18.25;11.63;;;1.10;99.90;;;;;;5001691;28;20032;-79
2022/03/16 04:19:51;;;;;;;22.27;11.27;;;1.10;99.90;;;;;;4996039;28;20029;-79
2022/03/16 04:22:16;;;;;;;17.23;11.02;;;1.10;99.90;;;;;;4967799;28;20041;-78
2022/03/16 04:24:42;;;;;;;17.38;11.20;;;1.10;99.90;;;;;;4982914;28;20117;-79
2022/03/16 04:27:07;;;;;;;21.27;11.77;;;1.10;99.90;;;;;;4971829;28;20029;-79
2022/03/16 04:29:33;;;;;;;19.00;10.80;;;1.00;99.90;;;;;;4986355;28;20045;-80
2022/03/16 04:31:58;;;;;;;18.88;10.77;;;1.00;99.90;;;;;;4980335;28;20115;-78
2022/03/16 04:34:24;;;;;;;19.63;12.07;;;1.00;99.90;;;;;;4980829;28;20070;-79
2022/03/16 04:36:49;;;;;;;16.05;10.55;;;0.90;99.90;;;;;;4986960;28;20061;-79
2022/03/16 04:39:16;;;;;;;21.02;10.65;;;1.00;99.90;;;;;;5002468;28;20396;-78
2022/03/16 04:41:42;;;;;;;19.15;11.45;;;0.90;99.90;;;;;;4987354;28;20033;-78
2022/03/16 04:44:07;;;;;;;20.15;10.52;;;0.90;99.90;;;;;;4969273;28;20083;-79
2022/03/16 04:46:33;;;;;;;18.52;11.65;;;0.90;99.90;;;;;;4970635;28;20100;-78
2022/03/16 04:48:59;;;;;;;17.02;11.43;;;0.80;99.90;;;;;;4984855;28;20037;-78
2022/03/16 04:51:24;;;;;;;20.95;11.45;;;0.80;99.90;;;;;;4984350;28;20046;-79
2022/03/16 04:53:50;;;;;;;15.93;10.50;;;0.90;99.90;;;;;;4988939;28;20470;-78
2022/03/16 04:56:15;;;;;;;17.65;11.40;;;0.90;99.90;;;;;;4988444;28;20064;-79
2022/03/16 04:58:41;;;;;;;23.00;11.93;;;0.90;99.90;;;;;;4972461;28;20116;-79
2022/03/16 05:01:06;;;;;;;23.58;12.73;;;0.90;99.90;;;;;;4977071;28;20038;-78
2022/03/16 05:03:32;;;;;;;24.92;11.88;;;0.90;99.90;;;;;;4974323;28;20046;-80
2022/03/16 05:05:58;;;;;;;22.05;11.93;;;0.80;99.90;;;;;;4985632;28;20127;-80
2022/03/16 05:08:23;;;;;;;20.70;11.98;;;0.90;99.90;;;;;;4975857;28;20030;-79
2022/03/16 05:10:49;;;;;;;23.77;12.50;;;0.80;99.90;;;;;;4993709;28;20385;-81
2022/03/16 05:13:15;;;;;;;22.73;12.48;;;0.80;99.90;;;;;;4968980;28;20500;-81
2022/03/16 05:15:40;;;;;;;22.77;12.27;;;0.80;99.90;;;;;;4982746;28;20022;-79
2022/03/16 05:18:06;;;;;;;17.55;11.18;;;0.80;99.90;;;;;;4989082;28;20034;-80
2022/03/16 05:20:32;;;;;;;23.15;12.98;;;0.80;99.90;;;;;;4970295;28;20030;-80
2022/03/16 05:22:58;;;;;;;22.08;12.30;;;0.80;99.90;;;;;;4986329;28;20508;-80
2022/03/16 05:25:26;;;;;;;23.98;13.15;;;0.80;99.90;;;;;;4968218;28;20064;-79
2022/03/16 05:27:52;;;;;;;24.73;12.63;;;0.80;99.90;;;;;;4976425;28;20087;-79
2022/03/16 05:30:20;;;;;;;23.20;13.18;;;0.80;99.90;;;;;;4968814;28;20493;-79
2022/03/16 05:32:45;;;;;;;23.55;12.35;;;0.70;99.90;;;;;;4983602;28;20030;-80
2022/03/16 05:35:12;;;;;;;24.92;12.50;;;0.80;99.90;;;;;;4988577;28;20026;-80
2022/03/16 05:37:38;;;;;;;22.55;12.35;;;0.80;99.90;;;;;;4970410;28;20026;-80
2022/03/16 05:40:05;;;;;;;25.27;12.65;;;0.80;99.90;;;;;;4972836;28;20037;-80
2022/03/16 05:42:30;;;;;;;28.90;13.30;;;0.80;99.90;;;;;;4965568;28;20044;-80
2022/03/16 05:45:02;;;;;;;23.80;13.13;;;0.90;99.90;;;;;;4983896;28;20033;-81
2022/03/16 05:47:27;;;;;;;22.40;13.38;;;0.90;99.90;;;;;;4982532;28;20041;-81
2022/03/16 05:49:53;;;;;;;24.23;13.98;;;0.90;99.90;;;;;;4994236;28;20029;-80
2022/03/16 05:52:21;;;;;;;22.02;13.25;;;0.90;99.90;;;;;;4968119;28;20049;-80
2022/03/16 05:54:53;;;;;;;23.25;12.63;;;0.90;99.90;;;;;;4979742;28;20071;-80
2022/03/16 05:57:19;;;;;;;21.92;12.52;;;0.90;99.90;;;;;;4986590;28;20053;-82
2022/03/16 05:59:44;;;;;;;22.02;12.43;;;0.90;99.90;;;;;;4970109;28;20060;-81
2022/03/16 06:02:10;;;;;;;24.02;13.52;;;0.90;99.90;;;;;;4971346;28;20481;-81
2022/03/16 06:04:36;;;;;;;21.70;12.63;;;0.90;99.90;;;;;;4963651;28;20044;-81
2022/03/16 06:07:03;;;;;;;32.92;14.35;;;0.90;99.90;;;;;;4976940;28;20114;-81
2022/03/16 06:09:29;;;;;;;28.85;13.35;;;0.90;99.90;;;;;;4984766;28;20042;-81
2022/03/16 06:11:54;;;;;;;25.23;13.57;;;0.80;99.90;;;;;;4969320;28;20030;-81
2022/03/16 06:14:20;;;;;;;22.15;12.25;;;1.00;99.90;;;;;;4974806;28;20030;-81
2022/03/16 06:16:47;;;;;;;30.27;14.38;;;1.00;99.90;;;;;;4982544;28;20036;-81
2022/03/16 06:19:13;;;;;;;25.30;14.25;;;1.00;99.90;;;;;;4980086;28;20057;-81
2022/03/16 06:21:38;;;;;;;28.27;13.90;;;1.00;99.90;;;;;;4982779;28;20038;-81
2022/03/16 06:24:05;;;;;;;27.05;14.20;;;1.00;99.90;;;;;;4963667;28;20045;-81
2022/03/16 06:26:31;;;;;;;28.48;14.00;;;1.10;99.90;;;;;;4969553;28;20034;-81
2022/03/16 06:28:56;;;;;;;28.25;15.43;;;1.20;99.90;;;;;;4969120;28;20034;-81
2022/03/16 06:31:22;;;;;;;25.20;13.63;;;1.20;99.90;;;;;;4966797;28;20036;-81
2022/03/16 06:33:47;;;;;;;25.70;14.02;;;1.20;99.90;;;;;;4973455;28;20228;-82
2022/03/16 06:36:13;;;;;;;28.23;15.45;;;1.20;99.90;;;;;;4972178;28;20054;-80
2022/03/16 06:38:39;;;;;;;28.13;13.93;;;1.20;99.90;;;;;;4971976;28;20530;-81
2022/03/16 06:41:05;;;;;;;26.77;14.15;;;1.30;99.90;;;;;;4989746;28;20037;-80
2022/03/16 06:43:30;;;;;;;30.77;15.45;;;1.50;99.90;;;;;;4984366;28;20489;-80
2022/03/16 06:45:56;;;;;;;28.20;14.88;;;1.50;99.90;;;;;;4985157;28;20124;-80
2022/03/16 06:48:23;;;;;;;29.20;14.98;;;1.60;99.90;;;;;;4966449;28;20088;-80
2022/03/16 06:50:50;;;;;;;30.90;16.17;;;1.60;99.90;;;;;;4978384;28;20378;-80
2022/03/16 06:53:15;;;;;;;29.27;15.43;;;1.60;99.90;;;;;;4975952;28;20022;-81
2022/03/16 06:55:41;;;;;;;27.48;15.13;;;1.60;99.90;;;;;;4980565;28;20022;-81
2022/03/16 06:58:06;;;;;;;32.40;15.30;;;1.80;99.90;;;;;;4977679;28;20022;-80
2022/03/16 07:00:32;;;;;;;31.25;15.40;;;1.80;99.90;;;;;;4985472;28;20032;-81
2022/03/16 07:03:02;;;;;;;29.15;15.52;;;1.80;99.90;;;;;;4970261;28;20022;-81
2022/03/16 07:05:33;;;;;;;30.63;14.95;;;1.90;99.90;;;;;;4971400;28;20033;-80
2022/03/16 07:07:59;;;;;;;30.45;16.80;;;2.20;99.90;;;;;;4977412;28;20032;-80
2022/03/16 07:10:26;;;;;;;26.58;15.55;;;2.30;99.90;;;;;;4965185;28;20061;-81
2022/03/16 07:12:51;;;;;;;34.47;15.23;;;2.40;99.90;;;;;;4968348;28;20037;-81
2022/03/16 07:15:17;;;;;;;25.88;12.77;;;2.40;99.90;;;;;;4968924;28;20026;-81
2022/03/16 07:17:42;;;;;;;25.52;14.63;;;2.60;99.90;;;;;;4984513;28;20121;-81
2022/03/16 07:20:08;;;;;;;23.30;12.85;;;2.70;99.90;;;;;;4969396;28;20474;-81
2022/03/16 07:22:35;;;;;;;35.08;17.25;;;2.80;99.90;;;;;;4980461;28;20038;-80
2022/03/16 07:25:09;;;;;;;28.45;16.10;;;2.90;99.90;;;;;;4965202;28;20032;-80
2022/03/16 07:27:38;;;;;;;29.17;16.23;;;3.00;99.90;;;;;;4969546;28;20493;-79
2022/03/16 07:30:07;;;;;;;30.13;14.95;;;3.10;99.90;;;;;;4967114;28;20044;-80
2022/03/16 07:32:36;;;;;;;27.45;15.48;;;3.20;99.90;;;;;;4964733;28;20038;-79
2022/03/16 07:35:02;;;;;;;34.47;16.85;;;3.20;99.90;;;;;;4963460;28;20484;-80
2022/03/16 07:37:27;;;;;;;33.30;17.27;;;3.20;99.90;;;;;;4981068;28;20034;-80
2022/03/16 07:39:53;;;;;;;34.65;18.20;;;3.10;99.90;;;;;;4997818;28;20076;-80
2022/03/16 07:42:18;;;;;;;39.42;18.88;;;3.40;99.90;;;;;;4980670;28;20034;-79
2022/03/16 07:44:45;;;;;;;31.60;17.17;;;3.60;99.90;;;;;;4963575;28;20406;-80
2022/03/16 07:47:11;;;;;;;35.53;18.25;;;3.90;99.90;;;;;;4973892;28;20045;-81
2022/03/16 07:49:37;;;;;;;37.10;18.52;;;3.90;99.90;;;;;;4971650;28;20054;-79
2022/03/16 07:52:03;;;;;;;31.73;16.70;;;4.10;99.90;;;;;;4981310;28;20037;-79
2022/03/16 07:54:29;;;;;;;35.08;18.90;;;4.30;99.90;;;;;;5006929;28;20450;-80
2022/03/16 07:56:55;;;;;;;33.63;16.95;;;4.20;99.90;;;;;;4983967;28;20040;-79
2022/03/16 07:59:21;;;;;;;36.25;17.75;;;4.40;99.90;;;;;;4985404;28;20033;-80
2022/03/16 08:01:48;;;;;;;35.65;17.75;;;4.50;99.90;;;;;;4978022;28;20038;-80
2022/03/16 08:04:15;;;;;;;35.55;18.92;;;4.40;99.90;;;;;;4967764;28;20042;-79
2022/03/16 08:06:43;;;;;;;32.17;16.98;;;4.90;99.90;;;;;;4970040;28;20061;-80
2022/03/16 08:09:08;;;;;;;33.63;17.23;;;5.20;99.90;;;;;;4972269;28;20493;-79
2022/03/16 08:11:34;;;;;;;32.00;16.45;;;5.50;99.90;;;;;;4977274;28;20034;-79
2022/03/16 08:13:59;;;;;;;30.13;16.33;;;5.80;99.90;;;;;;4967893;28;20091;-80
2022/03/16 08:16:25;;;;;;;35.35;17.27;;;5.90;99.90;;;;;;4982707;28;20053;-80
2022/03/16 08:18:50;;;;;;;30.30;16.45;;;6.10;99.90;;;;;;4969742;28;20030;-79
2022/03/16 08:21:16;;;;;;;29.13;16.88;;;6.10;99.90;;;;;;4971515;28;20121;-80
2022/03/16 08:23:41;;;;;;;26.45;16.20;;;6.10;99.90;;;;;;4967547;28;20415;-80
2022/03/16 08:26:07;;;;;;;30.15;16.52;;;6.30;99.90;;;;;;4978918;28;20504;-79
2022/03/16 08:28:32;;;;;;;32.75;16.40;;;6.70;99.90;;;;;;4966021;28;20048;-80
2022/03/16 08:30:59;;;;;;;28.52;14.60;;;6.40;99.90;;;;;;4980466;28;20045;-80
2022/03/16 08:33:24;;;;;;;27.02;16.58;;;6.70;99.90;;;;;;4998075;28;20552;-79
2022/03/16 08:35:50;;;;;;;29.25;16.27;;;7.00;99.90;;;;;;4984339;28;20030;-79
2022/03/16 08:38:16;;;;;;;25.88;14.80;;;6.90;99.90;;;;;;4985706;28;20030;-79
2022/03/16 08:40:42;;;;;;;28.63;13.90;;;7.30;99.90;;;;;;4974121;28;20041;-80
2022/03/16 08:43:08;;;;;;;23.92;14.35;;;7.40;99.90;;;;;;5004396;28;20180;-80
2022/03/16 08:45:33;;;;;;;23.17;14.18;;;7.70;99.90;;;;;;4970889;28;20076;-80
2022/03/16 08:47:59;;;;;;;24.13;14.25;;;7.90;99.90;;;;;;4972362;28;20022;-79
2022/03/16 08:50:25;;;;;;;18.00;11.50;;;8.30;99.90;;;;;;4968287;28;20046;-77
2022/03/16 08:52:51;;;;;;;14.82;8.13;;;8.70;99.90;;;;;;4980004;28;20022;-79
2022/03/16 08:55:16;;;;;;;12.77;8.20;;;9.20;99.90;;;;;;5002069;28;20033;-78
2022/03/16 08:57:45;;;;;;;15.82;8.15;;;9.30;99.90;;;;;;4994192;28;20037;-79
2022/03/16 09:00:18;;;;;;;13.35;7.88;;;9.50;99.90;;;;;;4976562;28;20112;-78
2022/03/16 09:02:45;;;;;;;13.85;9.25;;;10.10;99.90;;;;;;4991816;28;20136;-78
2022/03/16 09:05:12;;;;;;;13.15;8.27;;;10.00;99.90;;;;;;4974837;28;20061;-80
2022/03/16 09:07:38;;;;;;;11.27;7.60;;;10.50;99.90;;;;;;4985181;28;20084;-79
2022/03/16 09:10:06;;;;;;;11.20;7.50;;;10.50;99.90;;;;;;4986457;28;20045;-79
2022/03/16 09:12:31;;;;;;;13.00;7.20;;;10.80;99.90;;;;;;4992042;28;20390;-79
2022/03/16 09:14:58;;;;;;;9.57;6.50;;;11.00;99.90;;;;;;4985476;28;20030;-78
2022/03/16 09:17:23;;;;;;;9.88;5.85;;;11.20;99.90;;;;;;4984505;28;20044;-79
2022/03/16 09:19:50;;;;;;;12.30;8.98;;;11.40;99.90;;;;;;4975527;28;20033;-79
2022/03/16 09:22:16;;;;;;;12.27;7.53;;;11.50;99.90;;;;;;4982177;28;20113;-79
2022/03/16 09:24:41;;;;;;;12.02;7.78;;;11.60;99.90;;;;;;4975368;28;20117;-79
2022/03/16 09:27:08;;;;;;;14.35;9.43;;;11.60;99.90;;;;;;4983211;28;20026;-79
2022/03/16 09:29:33;;;;;;;12.57;7.63;;;11.40;99.90;;;;;;4985234;28;20081;-80
2022/03/16 09:31:59;;;;;;;15.02;7.60;;;11.50;99.90;;;;;;4968872;28;20409;-79
2022/03/16 09:34:25;;;;;;;12.85;8.55;;;11.80;99.90;;;;;;4999710;28;20048;-78
2022/03/16 09:36:50;;;;;;;13.02;8.85;;;11.70;99.90;;;;;;4987494;28;20141;-79
2022/03/16 09:39:16;;;;;;;11.98;8.57;;;12.00;99.90;;;;;;4987049;28;20061;-80
2022/03/16 09:41:41;;;;;;;12.98;7.80;;;12.00;99.90;;;;;;4970107;28;20033;-78
2022/03/16 09:44:07;;;;;;;13.48;8.07;;;12.00;99.90;;;;;;4971546;28;20441;-79
2022/03/16 09:46:34;;;;;;;13.27;8.07;;;12.30;99.90;;;;;;4970016;28;20486;-79
2022/03/16 09:49:00;;;;;;;14.43;8.85;;;12.30;99.90;;;;;;4983049;28;20372;-78
2022/03/16 09:51:25;;;;;;;13.50;8.52;;;12.40;99.90;;;;;;4955250;28;20061;-78
2022/03/16 09:53:52;;;;;;;13.75;8.32;;;12.50;99.90;;;;;;4961128;28;20521;-77
2022/03/16 09:56:19;;;;;;;14.90;9.43;;;12.70;99.90;;;;;;4997617;28;20120;-77
2022/03/16 09:58:44;;;;;;;12.23;7.82;;;12.60;99.90;;;;;;5003165;28;20122;-78
2022/03/16 10:01:10;;;;;;;10.88;7.70;;;12.50;99.90;;;;;;4988536;28;20037;-78
2022/03/16 10:03:36;;;;;;;9.50;6.32;;;13.00;99.90;;;;;;4971858;28;20112;-77
2022/03/16 10:06:01;;;;;;;10.48;7.65;;;12.80;99.90;;;;;;4969446;28;20036;-78
2022/03/16 10:08:27;;;;;;;8.63;6.07;;;13.10;99.90;;;;;;4971098;28;20045;-78
2022/03/16 10:14:14;;;;;;;8.20;4.40;;;13.80;99.90;;;;;;4995876;28;20080;-78
2022/03/16 10:19:49;;;;;;;11.25;7.70;;;14.20;99.90;;;;;;4987568;28;20635;-77
2022/03/16 10:22:27;;;;;;;10.88;6.88;;;14.40;99.90;;;;;;4983497;28;20034;-77
2022/03/16 10:25:06;;;;;;;9.82;6.68;;;14.70;99.90;;;;;;4985661;28;20436;-78
2022/03/16 10:27:36;;;;;;;9.55;7.35;;;14.50;99.90;;;;;;5014891;28;20447;-78
2022/03/16 10:30:08;;;;;;;10.18;6.20;;;14.60;99.00;;;;;;4949322;28;20033;-79
2022/03/16 10:32:34;;;;;;;9.68;5.95;;;14.70;99.60;;;;;;4980635;28;20465;-78
2022/03/16 10:35:05;;;;;;;10.48;7.60;;;14.80;97.70;;;;;;4984506;28;20160;-79
2022/03/16 10:37:31;;;;;;;8.50;6.40;;;14.70;97.90;;;;;;4995632;28;20037;-78
2022/03/16 10:39:58;;;;;;;9.02;6.38;;;14.80;97.00;;;;;;4984660;28;20397;-79
2022/03/16 10:48:14;;;;;;;8.70;6.20;;;15.00;94.80;;;;;;4994313;28;20500;-80
2022/03/16 10:50:40;;;;;;;10.00;6.13;;;15.20;94.20;;;;;;5001443;28;20413;-80
2022/03/16 10:53:06;;;;;;;8.90;6.32;;;15.50;93.70;;;;;;4974901;28;20038;-79
2022/03/16 10:55:31;;;;;;;8.38;6.13;;;15.60;93.00;;;;;;4966500;28;20069;-79
2022/03/16 10:57:57;;;;;;;7.47;5.18;;;15.70;91.90;;;;;;4988281;28;20030;-80
2022/03/16 11:00:22;;;;;;;7.18;4.80;;;15.70;92.10;;;;;;4993860;28;20034;-80
2022/03/16 11:02:48;;;;;;;9.93;6.47;;;16.00;90.30;;;;;;4992102;28;20427;-80
2022/03/16 11:05:18;;;;;;;8.63;6.30;;;15.80;91.50;;;;;;4982274;28;20061;-80
2022/03/16 11:07:45;;;;;;;7.45;4.75;;;15.50;91.80;;;;;;4986040;28;20038;-81
2022/03/16 11:10:11;;;;;;;9.48;6.30;;;15.40;93.10;;;;;;4964506;28;20084;-82
2022/03/16 11:15:23;;;;;;;5.57;4.05;;;15.40;93.00;;;;;;4987366;28;20128;-81
2022/03/16 11:17:51;;;;;;;6.45;4.57;;;15.90;92.50;;;;;;4997762;28;20034;-81
2022/03/16 11:20:19;;;;;;;7.40;5.35;;;16.50;88.60;;;;;;4980049;28;20030;-80
2022/03/16 11:26:04;;;;;;;6.65;4.97;;;16.00;91.60;;;;;;5001173;28;20088;-80
2022/03/16 11:28:40;;;;;;;6.22;4.75;;;16.60;89.10;;;;;;4998836;28;20485;-81
2022/03/16 11:31:08;;;;;;;6.70;4.88;;;16.90;86.70;;;;;;4978916;28;20026;-84
2022/03/16 11:33:50;;;;;;;7.95;5.50;;;16.50;87.00;;;;;;4985353;28;20054;-81
2022/03/16 11:36:34;;;;;;;6.15;5.00;;;16.30;90.30;;;;;;4984320;28;20489;-81
2022/03/16 11:39:02;;;;;;;8.55;5.38;;;16.30;89.10;;;;;;4988991;28;20029;-81
2022/03/16 11:41:32;;;;;;;6.05;4.05;;;16.20;90.40;;;;;;4982509;28;20049;-82
2022/03/16 11:44:25;;;;;;;5.95;5.25;;;16.70;89.60;;;;;;4981989;28;20494;-81
2022/03/16 11:46:51;;;;;;;6.18;5.28;;;16.90;87.00;;;;;;4997526;28;20072;-81
2022/03/16 11:49:30;;;;;;;5.35;4.43;;;17.50;85.10;;;;;;4967828;28;20038;-82
2022/03/16 11:51:59;;;;;;;7.28;3.95;;;17.20;83.50;;;;;;4994471;28;20041;-81
2022/03/16 11:54:42;;;;;;;6.18;4.25;;;17.00;84.80;;;;;;4989995;28;20049;-80
2022/03/16 11:57:08;;;;;;;5.95;4.47;;;17.00;84.20;;;;;;5011696;28;20049;-80
2022/03/16 11:59:36;;;;;;;6.15;4.72;;;17.40;79.40;;;;;;4981958;28;20494;-79
2022/03/16 12:02:07;;;;;;;5.97;3.92;;;17.10;83.50;;;;;;4983039;28;20133;-79
2022/03/16 12:04:46;;;;;;;5.75;4.00;;;17.60;81.10;;;;;;4989077;28;20474;-80
2022/03/16 12:07:19;;;;;;;6.90;4.55;;;17.40;76.90;;;;;;4993829;28;20490;-79
2022/03/16 12:09:54;;;;;;;5.60;3.70;;;17.50;76.40;;;;;;4978518;28;20124;-79
2022/03/16 12:12:58;;;;;;;4.05;3.65;;;17.70;75.50;;;;;;5004930;28;20396;-79
2022/03/16 12:15:29;;;;;;;5.53;3.53;;;18.10;72.20;;;;;;4978662;28;20405;-79
2022/03/16 12:17:58;;;;;;;5.05;4.10;;;17.80;72.70;;;;;;5008656;28;20129;-78
2022/03/16 12:20:28;;;;;;;4.70;3.92;;;17.90;70.70;;;;;;4999706;28;25260;-78
2022/03/16 12:22:55;;;;;;;4.68;3.10;;;18.10;68.90;;;;;;4973066;28;20049;-78
2022/03/16 12:25:27;;;;;;;4.35;3.40;;;17.80;70.70;;;;;;4986112;28;20038;-79
2022/03/16 12:30:48;;;;;;;5.13;3.65;;;18.00;70.80;;;;;;5007939;28;20045;-79
2022/03/16 12:33:20;;;;;;;5.60;4.38;;;18.50;70.00;;;;;;4970731;28;20113;-79
2022/03/16 12:35:47;;;;;;;5.07;3.55;;;18.20;70.30;;;;;;4977626;28;20065;-79
2022/03/16 12:38:13;;;;;;;6.28;4.10;;;18.30;69.60;;;;;;4973527;28;20033;-79
2022/03/16 12:42:31;;;;;;;4.57;3.70;;;18.30;71.40;;;;;;4998929;28;20121;-78
2022/03/16 12:43:30;;;;;;;6.70;4.05;;;18.30;69.60;;;;;;5010251;28;20084;-78
2022/03/16 12:46:02;;;;;;;6.82;3.95;;;18.30;70.10;;;;;;4971265;28;20091;-79
2022/03/16 12:48:33;;;;;;;4.88;4.10;;;18.30;69.50;;;;;;4986109;28;20033;-79
2022/03/16 12:50:59;;;;;;;5.10;3.95;;;18.10;70.90;;;;;;4966931;28;20544;-78
2022/03/16 12:53:44;;;;;;;4.53;3.75;;;18.50;69.00;;;;;;4986952;28;20105;-78
2022/03/16 12:56:11;;;;;;;4.82;3.80;;;18.50;67.00;;;;;;4991162;28;20482;-78
2022/03/16 12:58:38;;;;;;;4.40;3.85;;;18.70;67.00;;;;;;4987041;28;20478;-79
2022/03/16 13:01:03;;;;;;;5.00;4.50;;;18.90;66.60;;;;;;4972085;28;20036;-78